• Join FlightAware (Why Join?)
  • Login
  • US Flag 
08:03PM EDT


 

Airport Tracker/Info


-or-


 

Live Flight TrackerFlight Track Log ✈ ASQ4232 ✈ 12-May-2013 ✈ KBTV - KCLE

Flight Track Log - Related Links

Times and Time Zones

All times are in EDT time to prevent confusion due to time zone crossing. See the ASQ4232 flight status page for this flight to view local times or setup timezone preferences in your user account.

Time Position Orientation Groundspeed Altitude Reporting Facility
EDT Latitude Longitude Course Direction KTS MPH feet Rate Location/Type
05:12PM 44.4575 -73.3767 241° Southwest 233 268 7,700  Level Boston Center
05:13PM 44.4236 -73.4575 240° Southwest 238 274 10,200 1,980 Climbing Boston Center
05:14PM 44.3872 -73.5411 239° Southwest 248 285 11,700 1,320 Climbing Boston Center
05:15PM 44.3447 -73.6361 238° Southwest 276 318 12,900 1,260 Climbing Boston Center
05:16PM 44.2145 -73.7586 240° Southwest  Level FlightAware Approximate
05:16PM 44.2997 -73.7367 238° Southwest 301 346 14,300  Level Boston Center
05:17PM 44.2528 -73.8400 238° Southwest 312 359 15,800 1,500 Climbing Boston Center
05:18PM 44.2078 -73.9431 239° Southwest 317 365 17,400 1,620 Climbing Boston Center
05:19PM 44.1647 -74.0433 239° Southwest 310 357 19,100 1,620 Climbing Boston Center
05:20PM 44.1194 -74.1406 237° Southwest 310 357 20,700 1,440 Climbing Boston Center
05:21PM 44.0742 -74.2433 239° Southwest 310 357 22,000 1,320 Climbing Boston Center
05:22PM 44.0289 -74.3431 238° Southwest 315 362 23,400 1,320 Climbing Boston Center
05:23PM 43.9856 -74.4425 239° Southwest 315 362 24,700 1,260 Climbing Boston Center
05:24PM 43.9381 -74.5392 236° Southwest 315 362 26,000 1,320 Climbing Boston Center
05:25PM 43.8944 -74.6411 239° Southwest 315 362 27,400 1,320 Climbing Boston Center
05:26PM 43.8508 -74.7347 237° Southwest 315 362 28,700 1,260 Climbing Boston Center
05:27PM 43.8092 -74.8308 239° Southwest 310 357 30,000 1,140 Climbing Boston Center
05:28PM 43.7633 -74.9297 237° Southwest 305 351 31,000 840 Climbing Boston Center
05:29PM 43.7153 -75.0283 236° Southwest 305 351 31,700 480 Climbing Boston Center
05:30PM 43.6669 -75.1383 239° Southwest 321 369 32,000 120 Climbing Boston Center
05:31PM 43.6119 -75.2533 237° Southwest 344 396 32,000  Level Boston Center
05:32PM 43.5569 -75.3739 238° Southwest 364 419 32,000  Level Boston Center
05:33PM 43.4994 -75.4972 237° Southwest 375 432 32,000  Level Boston Center
05:34PM 43.4442 -75.6175 238° Southwest 380 437 32,000  Level Boston Center
05:35PM 43.3908 -75.7317 237° Southwest 388 447 32,000  Level Boston Center
05:36PM 43.3331 -75.8542 237° Southwest 388 447 32,000  Level Boston Center
05:37PM 43.2753 -75.9736 236° Southwest 383 441 32,000  Level Boston Center
05:39PM 43.1803 -76.1642 236° Southwest 385 443 32,000  Level Cleveland Center
05:40PM 43.1331 -76.2956 244° Southwest 385 443 32,000  Level Cleveland Center
05:41PM 43.0919 -76.4236 246° West 385 443 32,000 -60 Level Cleveland Center
05:42PM 43.0508 -76.5542 247° West 380 437 31,900  Descending Cleveland Center
05:43PM 43.0075 -76.6875 246° West 380 437 32,000  Climbing Cleveland Center
05:44PM 42.9658 -76.8181 246° West 385 443 32,000  Level Cleveland Center
05:45PM 42.9242 -76.9453 246° West 385 443 32,000  Level Cleveland Center
05:46PM 42.8781 -77.0783 245° Southwest 385 443 32,000  Level Cleveland Center
05:47PM 42.8256 -77.2003 240° Southwest 385 443 32,000  Level Cleveland Center
05:48PM 42.7728 -77.3247 240° Southwest 385 443 32,000  Level Cleveland Center
05:49PM 42.7200 -77.4489 240° Southwest 385 443 32,000  Level Cleveland Center
05:50PM 42.6692 -77.5758 241° Southwest 385 443 32,000  Level Cleveland Center
05:51PM 42.6139 -77.6997 239° Southwest 385 443 32,000  Level Cleveland Center
05:52PM 42.5706 -77.8003 240° Southwest 385 443 32,000  Level Cleveland Center
05:53PM 42.5111 -77.9325 239° Southwest 385 443 32,000  Level Cleveland Center
05:54PM 42.4556 -78.0617 240° Southwest 385 443 32,000  Level Cleveland Center
05:55PM 42.4019 -78.1847 239° Southwest 385 443 32,000  Level Cleveland Center
05:56PM 42.3481 -78.3075 239° Southwest 390 449 32,000  Level Cleveland Center
05:57PM 42.2922 -78.4358 240° Southwest 390 449 32,000  Level Cleveland Center
05:58PM 42.2361 -78.5583 238° Southwest 390 449 32,000  Level Cleveland Center
05:59PM 42.1797 -78.6833 239° Southwest 395 455 32,000 -60 Level Cleveland Center
06:00PM 42.1278 -78.8139 242° Southwest 395 455 31,900 -840 Descending Cleveland Center
06:01PM 42.0903 -78.9519 250° West 390 449 30,400 -1,500 Descending Cleveland Center
06:02PM 42.0586 -79.0842 252° West 390 449 28,900 -1,560 Descending Cleveland Center
06:03PM 42.0247 -79.2164 251° West 390 449 27,300 -960 Descending Cleveland Center
06:04PM 41.9931 -79.3483 252° West 385 443 27,000 -600 Descending Cleveland Center
06:05PM 41.9569 -79.4858 251° West 385 443 26,100 -540 Descending Cleveland Center
06:06PM 41.9164 -79.6400 251° West 390 449 26,000 -60 Descending Cleveland Center
06:07PM 41.8822 -79.7772 252° West 395 455 26,000 -600 Level Cleveland Center
06:08PM 41.8872 -79.9250 273° West 387 445 24,800 -1,260 Descending Cleveland Center
06:09PM 41.9025 -80.0447 280° West 380 437 23,500 -1,500 Descending Cleveland Center
06:10PM 41.9197 -80.1703 280° West 363 418 21,900 -1,560 Descending Cleveland Center
06:11PM 41.9325 -80.2872 278° West 336 387 20,400 -960 Descending Cleveland Center
06:12PM 41.9097 -80.4019 255° West 314 361 20,000 -600 Descending Cleveland Center
06:13PM 41.8600 -80.5022 236° Southwest 314 361 19,200 -1,140 Descending Cleveland Center
06:14PM 41.8078 -80.5997 234° Southwest 330 380 17,800 -1,440 Descending Cleveland Center
06:15PM 41.7597 -80.6972 237° Southwest 330 380 16,400 -1,320 Descending Cleveland Center
06:16PM 41.7075 -80.7972 235° Southwest 320 368 15,200 -1,320 Descending Cleveland Center
06:17PM 41.6636 -80.8778 234° Southwest 297 342 13,800 -1,440 Descending Cleveland Center
06:18PM 41.6217 -80.9608 236° Southwest 277 319 12,400 -1,440 Descending Cleveland Center
06:18PM 41.6111 -80.9858 241° Southwest 265 305 12,000 -1,440 Descending Cleveland Center
06:19PM 41.5817 -81.0383 233° Southwest 270 311 11,000 -1,500 Descending Cleveland Center
06:19PM 41.5692 -81.0606 233° Southwest 256 295 10,500 -1,020 Descending Cleveland Center
06:20PM 41.5419 -81.1131 235° Southwest 265 305 10,000 -540 Descending Cleveland Center
06:20PM 41.5292 -81.1378 235° Southwest 250 288 10,000  Level Cleveland Center
06:21PM 41.5183 -81.1989 257° West 253 291 10,000  Level Cleveland Center
06:21PM 41.5286 -81.2267 296° West 249 287 10,000 -840 Level Cleveland Center
06:22PM 41.5431 -81.2850 288° West 236 272 9,200 -1,020 Descending Cleveland Center
06:22PM 41.5594 -81.3019 322° Northwest 259 298 9,000 -900 Descending Cleveland Center
06:23PM 41.6072 -81.3442 327° Northwest 211 243 8,100 -600 Descending Cleveland Center
06:24PM 41.6425 -81.3722 329° Northwest 201 231 8,000 -180 Descending Cleveland Center
06:24PM 41.6569 -81.3836 329° Northwest 169 194 7,900 -720 Descending Cleveland Center
06:25PM 41.6756 -81.4089 315° West 172 198 7,300 -1,020 Descending Cleveland Center
06:25PM 41.6756 -81.4200 270° West 160 184 7,000 -1,200 Descending Cleveland Center
06:26PM 41.6606 -81.4614 244° Southwest 131 151 6,100 -900 Descending Cleveland Center
06:26PM 41.6522 -81.4781 236° Southwest 154 177 6,000 -240 Descending Cleveland Center
06:27PM 41.6375 -81.4972 224° Southwest 131 151 5,900 -600 Descending Cleveland Center
06:27PM 41.6267 -81.5164 233° Southwest 150 173 5,500 -840 Descending Cleveland Center
06:28PM 41.6100 -81.5414 228° Southwest 150 173 5,100 -540 Descending Cleveland Center
06:28PM 41.5994 -81.5578 229° Southwest 150 173 5,000 -120 Descending Cleveland Center
06:29PM 41.5656 -81.6072 228° Southwest 174 200 5,000  Level Cleveland Center